createdAt,value
2022-11-21T00:00:54.166Z,93.32
2022-11-21T00:03:21.402Z,88.85
2022-11-21T00:05:49.451Z,86.28
2022-11-21T00:08:18.630Z,94.20
2022-11-21T00:10:46.302Z,144.77
2022-11-21T00:13:15.883Z,69.95
2022-11-21T00:15:43.867Z,226.38
2022-11-21T00:18:14.002Z,89.45
2022-11-21T00:20:41.848Z,189.52
2022-11-21T00:23:09.136Z,302.60
2022-11-21T00:25:36.753Z,262.48
2022-11-21T00:28:04.190Z,80.75
2022-11-21T00:30:31.085Z,317.88
2022-11-21T00:33:00.918Z,290.83
2022-11-21T00:35:28.028Z,328.58
2022-11-21T00:37:54.832Z,51.40
2022-11-21T00:40:21.713Z,52.47
2022-11-21T00:42:48.425Z,53.55
2022-11-21T00:45:19.637Z,138.15
2022-11-21T00:47:49.638Z,232.55
2022-11-21T00:50:16.474Z,133.90
2022-11-21T00:52:43.179Z,210.50
2022-11-21T00:55:10.220Z,456.98
2022-11-21T00:57:36.998Z,49.30
2022-11-21T01:00:05.140Z,266.13
2022-11-21T01:02:32.835Z,45.08
2022-11-21T01:04:59.562Z,82.40
2022-11-21T01:07:26.337Z,85.13
2022-11-21T01:09:53.220Z,121.97
2022-11-21T01:12:19.937Z,40.58
2022-11-21T01:14:46.688Z,108.35
2022-11-21T01:17:13.453Z,248.48
2022-11-21T01:19:40.188Z,69.38
2022-11-21T01:22:06.927Z,50.30
2022-11-21T01:24:33.697Z,155.30
2022-11-21T01:27:00.416Z,178.73
2022-11-21T01:29:27.779Z,237.40
2022-11-21T01:31:54.605Z,137.32
2022-11-21T01:34:21.415Z,48.53
2022-11-21T01:36:48.166Z,174.45
2022-11-21T01:39:14.979Z,69.63
2022-11-21T01:41:44.436Z,92.95
2022-11-21T01:44:17.996Z,57.08
2022-11-21T01:46:45.121Z,61.15
2022-11-21T01:49:17.148Z,56.13
2022-11-21T01:51:56.259Z,46.53
2022-11-21T01:54:39.238Z,61.97
2022-11-21T01:57:11.982Z,44.08
2022-11-21T01:59:53.352Z,56.88
2022-11-21T02:02:23.639Z,68.20
2022-11-21T02:04:52.475Z,257.15
2022-11-21T02:07:22.886Z,120.88
2022-11-21T02:09:57.092Z,46.33
2022-11-21T02:12:35.418Z,49.72
2022-11-21T02:15:02.212Z,44.35
2022-11-21T02:17:32.466Z,48.10
2022-11-21T02:20:02.954Z,56.78
2022-11-21T02:22:41.638Z,44.25
2022-11-21T02:25:10.053Z,48.72
2022-11-21T02:27:36.892Z,66.75
2022-11-21T02:30:05.668Z,48.42
2022-11-21T02:32:38.898Z,90.25
2022-11-21T02:35:06.866Z,80.13
2022-11-21T02:37:36.468Z,291.80
2022-11-21T02:40:10.088Z,59.90
2022-11-21T02:42:58.785Z,90.72
2022-11-21T02:45:30.377Z,72.68
2022-11-21T02:48:03.616Z,72.75
2022-11-21T02:50:36.459Z,67.47
2022-11-21T02:53:05.258Z,63.88
2022-11-21T02:55:32.268Z,84.78
2022-11-21T02:58:01.745Z,56.72
2022-11-21T03:00:32.393Z,197.98
2022-11-21T03:02:59.176Z,442.95
2022-11-21T03:05:25.964Z,219.70
2022-11-21T03:07:52.753Z,102.35
2022-11-21T03:10:20.581Z,54.47
2022-11-21T03:12:47.309Z,67.05
2022-11-21T03:15:15.825Z,161.63
2022-11-21T03:17:43.480Z,165.95
2022-11-21T03:20:11.186Z,73.90
2022-11-21T03:22:37.939Z,55.85
2022-11-21T03:25:05.050Z,112.57
2022-11-21T03:27:31.747Z,84.22
2022-11-21T03:29:58.480Z,72.03
2022-11-21T03:32:25.320Z,138.55
2022-11-21T03:34:52.055Z,266.40
2022-11-21T03:37:18.989Z,106.65
2022-11-21T03:39:45.773Z,191.88
2022-11-21T03:42:12.547Z,70.13
2022-11-21T03:44:39.332Z,66.03
2022-11-21T03:47:06.100Z,63.65
2022-11-21T03:49:32.863Z,59.10
2022-11-21T03:51:59.725Z,121.88
2022-11-21T03:54:26.802Z,97.03
2022-11-21T03:56:53.915Z,74.20
2022-11-21T03:59:20.654Z,91.40
2022-11-21T04:01:47.484Z,64.13
2022-11-21T04:04:14.297Z,70.25
2022-11-21T04:06:41.064Z,55.80
2022-11-21T04:09:07.874Z,93.10
2022-11-21T04:11:34.592Z,55.42
2022-11-21T04:14:01.378Z,58.60
2022-11-21T04:16:28.145Z,80.78
2022-11-21T04:18:54.854Z,60.65
2022-11-21T04:21:21.609Z,90.82
2022-11-21T04:23:48.381Z,108.00
2022-11-21T04:26:15.097Z,183.55
2022-11-21T04:28:41.839Z,125.05
2022-11-21T04:31:11.123Z,223.05
2022-11-21T04:33:39.401Z,153.25
2022-11-21T04:36:08.058Z,73.10
2022-11-21T04:38:34.876Z,119.90
2022-11-21T04:41:01.649Z,79.43
2022-11-21T04:43:28.433Z,50.08
2022-11-21T04:45:55.174Z,47.30
2022-11-21T04:48:21.898Z,54.17
2022-11-21T04:50:48.730Z,85.43
2022-11-21T04:53:15.532Z,126.10
2022-11-21T04:55:42.259Z,71.80
2022-11-21T04:58:09.069Z,89.57
2022-11-21T05:00:36.233Z,170.07
2022-11-21T05:03:04.546Z,117.95
2022-11-21T05:05:31.606Z,76.70
2022-11-21T05:07:58.670Z,243.50
2022-11-21T05:10:25.561Z,399.85
2022-11-21T05:13:18.828Z,59.75
2022-11-21T05:15:45.770Z,117.55
2022-11-21T05:18:12.896Z,65.47
2022-11-21T05:20:39.709Z,59.47
2022-11-21T05:23:06.607Z,64.28
2022-11-21T05:25:33.423Z,59.05
2022-11-21T05:28:00.192Z,57.35
2022-11-21T05:30:27.042Z,141.15
2022-11-21T05:32:53.834Z,71.38
2022-11-21T05:35:20.600Z,56.70
2022-11-21T05:37:47.328Z,192.10
2022-11-21T05:40:14.160Z,57.45
2022-11-21T05:43:02.342Z,113.55
2022-11-21T05:45:29.145Z,61.72
2022-11-21T05:47:55.976Z,84.35
2022-11-21T05:50:22.771Z,87.28
2022-11-21T05:52:49.559Z,54.30
2022-11-21T05:55:16.454Z,161.07
2022-11-21T05:57:43.199Z,54.10
2022-11-21T06:00:10.388Z,58.25
2022-11-21T06:02:55.989Z,168.13
2022-11-21T06:05:22.744Z,61.60
2022-11-21T06:07:49.671Z,69.22
2022-11-21T06:10:17.900Z,53.35
2022-11-21T06:12:44.606Z,80.53
2022-11-21T06:15:11.380Z,96.82
2022-11-21T06:17:38.140Z,50.85
2022-11-21T06:20:05.325Z,64.45
2022-11-21T06:22:32.034Z,229.98
2022-11-21T06:24:58.783Z,239.57
2022-11-21T06:27:25.510Z,335.90
2022-11-21T06:29:52.286Z,595.20
2022-11-21T06:32:19.100Z,329.80
2022-11-21T06:34:45.831Z,229.02
2022-11-21T06:37:12.566Z,45.53
2022-11-21T06:39:39.309Z,79.10
2022-11-21T06:42:06.129Z,51.78
2022-11-21T06:44:32.889Z,186.20
2022-11-21T06:46:59.659Z,71.97
2022-11-21T06:49:26.496Z,63.95
2022-11-21T06:51:53.245Z,52.78
2022-11-21T06:54:20.054Z,41.15
2022-11-21T06:56:47.070Z,45.88
2022-11-21T06:59:13.832Z,69.07
2022-11-21T07:01:40.684Z,39.70
2022-11-21T07:04:07.483Z,41.65
2022-11-21T07:06:34.949Z,49.58
2022-11-21T07:11:48.746Z,38.13
2022-11-21T07:14:15.501Z,50.22
2022-11-21T07:16:42.216Z,38.08
2022-11-21T07:19:08.998Z,44.10
2022-11-21T07:21:35.807Z,45.53
2022-11-21T07:24:02.588Z,53.55
2022-11-21T07:26:29.329Z,40.45
2022-11-21T07:28:56.075Z,40.20
2022-11-21T07:31:22.889Z,53.90
2022-11-21T07:33:49.792Z,38.28
2022-11-21T07:36:16.575Z,42.97
2022-11-21T07:38:45.841Z,39.80
2022-11-21T07:41:12.625Z,37.75
2022-11-21T07:43:39.420Z,51.85
2022-11-21T07:46:06.220Z,36.65
2022-11-21T07:48:32.992Z,36.50
2022-11-21T07:51:02.690Z,37.33
2022-11-21T07:53:29.436Z,36.63
2022-11-21T07:55:59.506Z,48.30
2022-11-21T07:58:26.314Z,53.80
2022-11-21T08:00:53.739Z,37.63
2022-11-21T08:03:20.553Z,35.88
2022-11-21T08:05:47.436Z,34.78
2022-11-21T08:08:15.345Z,166.48
2022-11-21T08:10:46.961Z,98.65
2022-11-21T08:13:14.515Z,36.30
2022-11-21T08:15:41.500Z,60.95
2022-11-21T08:18:13.840Z,57.03
2022-11-21T08:20:41.042Z,91.47
2022-11-21T08:23:09.883Z,50.80
2022-11-21T08:25:41.158Z,66.47
2022-11-21T08:28:10.041Z,40.92
2022-11-21T08:30:37.688Z,74.72
2022-11-21T08:33:04.940Z,174.13
2022-11-21T08:35:32.352Z,177.60
2022-11-21T08:38:00.235Z,42.53
2022-11-21T08:40:28.643Z,57.75
2022-11-21T08:43:05.596Z,56.67
2022-11-21T08:45:33.983Z,114.45
2022-11-21T08:48:00.825Z,42.60
2022-11-21T08:50:32.084Z,62.17
2022-11-21T08:53:02.860Z,147.77
2022-11-21T08:55:30.455Z,48.38
2022-11-21T08:57:57.249Z,60.60
2022-11-21T09:00:24.248Z,171.40
2022-11-21T09:02:51.019Z,51.17
2022-11-21T09:05:17.926Z,48.25
2022-11-21T09:07:44.874Z,72.00
2022-11-21T09:10:12.106Z,55.75
2022-11-21T09:12:38.838Z,107.90
2022-11-21T09:15:24.876Z,264.98
2022-11-21T09:18:03.845Z,55.35
2022-11-21T09:20:39.407Z,70.85
2022-11-21T09:23:12.317Z,125.70
2022-11-21T09:25:39.639Z,56.38
2022-11-21T09:28:08.101Z,175.40
2022-11-21T09:30:35.559Z,48.63
2022-11-21T09:33:03.153Z,42.20
2022-11-21T09:35:30.156Z,44.70
2022-11-21T09:37:57.857Z,46.55
2022-11-21T09:40:25.384Z,37.40
2022-11-21T09:43:03.468Z,39.95
2022-11-21T09:45:36.528Z,37.05
2022-11-21T09:48:14.199Z,51.08
2022-11-21T09:51:02.933Z,40.22
2022-11-21T09:53:39.631Z,43.88
2022-11-21T09:56:16.012Z,36.70
2022-11-21T09:58:47.969Z,48.92
2022-11-21T10:01:18.715Z,44.10
2022-11-21T10:03:50.943Z,41.90
2022-11-21T10:06:24.237Z,134.85
2022-11-21T10:09:29.306Z,45.97
2022-11-21T10:12:21.928Z,35.58
2022-11-21T10:15:16.007Z,33.92
2022-11-21T10:17:57.926Z,38.42
2022-11-21T10:20:48.095Z,36.33
2022-11-21T10:23:29.642Z,41.88
2022-11-21T10:26:06.124Z,38.45
2022-11-21T10:28:52.371Z,39.97
2022-11-21T10:31:20.706Z,44.45
2022-11-21T10:33:49.753Z,35.75
2022-11-21T10:36:39.980Z,33.65
2022-11-21T10:39:18.496Z,30.85
2022-11-21T10:42:09.462Z,30.90
2022-11-21T10:44:54.956Z,34.75
2022-11-21T10:47:30.954Z,35.85
2022-11-21T10:52:31.448Z,32.58
2022-11-21T10:55:03.986Z,29.55
2022-11-21T10:57:54.329Z,33.35
2022-11-21T11:00:25.469Z,36.45
2022-11-21T11:02:55.349Z,38.10
2022-11-21T11:05:24.776Z,38.30
2022-11-21T11:08:07.958Z,35.90
2022-11-21T11:10:40.953Z,36.50
2022-11-21T11:13:46.722Z,29.25
2022-11-21T11:16:19.225Z,26.93
2022-11-21T11:19:29.858Z,26.83
2022-11-21T11:21:59.584Z,28.25
2022-11-21T11:24:27.491Z,23.55
2022-11-21T11:27:03.607Z,21.63
2022-11-21T11:29:34.593Z,18.83
2022-11-21T11:32:21.566Z,18.52
2022-11-21T11:35:00.178Z,17.38
2022-11-21T11:37:41.357Z,17.75
2022-11-21T11:40:20.154Z,20.20
2022-11-21T11:43:25.836Z,15.90
2022-11-21T11:46:11.405Z,17.75
2022-11-21T11:49:17.331Z,19.83
2022-11-21T11:51:39.850Z,14.80
2022-11-21T11:54:18.165Z,17.83
2022-11-21T11:56:47.271Z,20.60
2022-11-21T11:59:38.933Z,22.90
2022-11-21T12:02:20.425Z,16.20
2022-11-21T12:04:53.136Z,16.85
2022-11-21T12:08:33.197Z,13.32
2022-11-21T12:10:35.463Z,25.48
2022-11-21T12:13:14.141Z,20.02
2022-11-21T12:15:49.121Z,13.50
2022-11-21T12:18:15.890Z,17.83
2022-11-21T12:21:07.916Z,14.90
2022-11-21T12:23:51.334Z,18.73
2022-11-21T12:26:26.535Z,17.08
2022-11-21T12:29:17.041Z,16.88
2022-11-21T12:32:21.350Z,13.00
2022-11-21T12:34:56.374Z,14.38
2022-11-21T12:37:41.159Z,14.70
2022-11-21T12:40:45.453Z,16.13
2022-11-21T12:43:36.351Z,14.65
2022-11-21T12:46:15.301Z,13.40
2022-11-21T12:49:41.781Z,23.88
2022-11-21T12:52:35.004Z,17.00
2022-11-21T12:55:10.852Z,16.50
2022-11-21T12:57:56.566Z,15.68
2022-11-21T13:00:41.819Z,13.30
2022-11-21T13:03:42.970Z,14.98
2022-11-21T13:06:23.822Z,20.58
2022-11-21T13:08:52.986Z,18.02
2022-11-21T13:11:47.766Z,16.48
2022-11-21T13:14:36.953Z,22.48
2022-11-21T13:17:26.390Z,19.27
2022-11-21T13:20:14.546Z,20.38
2022-11-21T13:22:41.449Z,24.88
2022-11-21T13:25:30.108Z,19.67
2022-11-21T13:28:19.571Z,22.02
2022-11-21T13:30:50.582Z,19.67
2022-11-21T13:33:35.322Z,15.20
2022-11-21T13:36:30.582Z,12.93
2022-11-21T13:38:57.296Z,11.35
2022-11-21T13:41:55.128Z,12.05
2022-11-21T13:44:31.306Z,12.75
2022-11-21T13:47:09.418Z,11.02
2022-11-21T13:49:36.107Z,13.75
2022-11-21T13:52:20.492Z,12.07
2022-11-21T13:55:08.513Z,8.60
2022-11-21T13:57:38.342Z,8.20
2022-11-21T14:00:35.911Z,9.27
2022-11-21T14:03:20.649Z,9.20
2022-11-21T14:06:13.588Z,6.00
2022-11-21T14:08:40.808Z,8.25
2022-11-21T14:11:28.294Z,9.48
2022-11-21T14:13:55.130Z,9.02
2022-11-21T14:16:42.012Z,6.57
2022-11-21T14:19:17.760Z,8.90
2022-11-21T14:21:46.262Z,9.20
2022-11-21T14:24:18.606Z,7.93
2022-11-21T14:26:51.062Z,8.55
2022-11-21T14:29:37.576Z,7.80
2022-11-21T14:32:04.752Z,8.68
2022-11-21T14:34:33.171Z,7.93
2022-11-21T14:37:03.156Z,8.25
2022-11-21T14:39:38.772Z,6.82
2022-11-21T14:42:13.882Z,8.32
2022-11-21T14:44:40.897Z,8.73
2022-11-21T14:47:25.834Z,12.65
2022-11-21T14:49:55.321Z,6.70
2022-11-21T14:52:27.719Z,9.85
2022-11-21T14:57:49.870Z,9.43
2022-11-21T15:00:51.582Z,7.05
2022-11-21T15:03:24.216Z,8.88
2022-11-21T15:06:04.653Z,7.15
2022-11-21T15:11:24.586Z,5.38
2022-11-21T15:14:14.972Z,6.95
2022-11-21T15:16:42.275Z,7.90
2022-11-21T15:19:10.249Z,7.00
2022-11-21T15:21:37.285Z,6.90
2022-11-21T15:24:17.930Z,6.57
2022-11-21T15:26:44.789Z,9.23
2022-11-21T15:29:22.140Z,8.20
2022-11-21T15:32:16.260Z,7.72
2022-11-21T15:34:43.857Z,7.88
2022-11-21T15:37:18.194Z,6.82
2022-11-21T15:39:48.286Z,6.72
2022-11-21T15:42:49.834Z,8.73
2022-11-21T15:45:26.355Z,6.88
2022-11-21T15:47:53.387Z,7.75
2022-11-21T15:50:23.632Z,8.18
2022-11-21T15:52:52.063Z,7.30
2022-11-21T15:55:22.389Z,6.05
2022-11-21T15:57:49.157Z,6.72
2022-11-21T16:00:17.364Z,7.10
2022-11-21T16:02:44.149Z,15.75
2022-11-21T16:05:13.919Z,65.50
2022-11-21T16:07:41.405Z,6.82
2022-11-21T16:10:16.551Z,7.28
2022-11-21T16:12:48.045Z,31.70
2022-11-21T16:15:14.897Z,10.30
2022-11-21T16:17:41.776Z,6.93
2022-11-21T16:20:09.075Z,8.43
2022-11-21T16:22:35.775Z,7.40
2022-11-21T16:25:02.488Z,9.75
2022-11-21T16:27:29.529Z,7.38
2022-11-21T16:29:56.330Z,6.95
2022-11-21T16:32:26.189Z,9.40
2022-11-21T16:34:54.668Z,6.22
2022-11-21T16:37:21.438Z,6.25
2022-11-21T16:39:51.952Z,5.25
2022-11-21T16:42:20.232Z,6.05
2022-11-21T16:44:48.137Z,9.50
2022-11-21T16:47:15.588Z,6.65
2022-11-21T16:49:48.457Z,9.45
2022-11-21T16:52:15.689Z,6.90
2022-11-21T16:54:42.459Z,16.88
2022-11-21T16:57:09.501Z,8.25
2022-11-21T16:59:36.245Z,7.38
2022-11-21T17:02:02.996Z,7.65
2022-11-21T17:04:30.086Z,8.02
2022-11-21T17:06:57.567Z,7.50
2022-11-21T17:09:24.292Z,6.55
2022-11-21T17:11:51.034Z,5.90
2022-11-21T17:14:17.747Z,7.72
2022-11-21T17:16:45.720Z,6.72
2022-11-21T17:19:12.690Z,7.65
2022-11-21T17:21:39.477Z,17.05
2022-11-21T17:24:06.433Z,12.68
2022-11-21T17:26:36.682Z,8.57
2022-11-21T17:29:04.908Z,6.65
2022-11-21T17:31:32.082Z,55.78
2022-11-21T17:34:00.969Z,9.50
2022-11-21T17:36:29.479Z,8.88
2022-11-21T17:38:56.345Z,12.75
2022-11-21T17:41:24.370Z,19.88
2022-11-21T17:43:57.916Z,50.85
2022-11-21T17:46:25.809Z,19.08
2022-11-21T17:48:57.242Z,37.95
2022-11-21T17:51:30.695Z,44.45
2022-11-21T17:53:57.891Z,94.63
2022-11-21T17:56:27.387Z,20.75
2022-11-21T17:58:54.635Z,13.23
2022-11-21T18:01:22.294Z,139.52
2022-11-21T18:03:55.085Z,15.25
2022-11-21T18:06:22.047Z,27.23
2022-11-21T18:08:49.685Z,129.93
2022-11-21T18:11:19.499Z,16.58
2022-11-21T18:13:46.575Z,9.27
2022-11-21T18:16:16.678Z,11.10
2022-11-21T18:18:43.634Z,10.75
2022-11-21T18:21:12.724Z,48.17
2022-11-21T18:23:40.079Z,161.45
2022-11-21T18:26:08.430Z,27.77
2022-11-21T18:28:35.171Z,80.47
2022-11-21T18:31:16.890Z,10.48
2022-11-21T18:33:43.830Z,21.52
2022-11-21T18:36:12.403Z,23.75
2022-11-21T18:38:49.230Z,174.32
2022-11-21T18:41:19.378Z,43.30
2022-11-21T18:43:51.086Z,209.88
2022-11-21T18:46:18.629Z,155.05
2022-11-21T18:49:04.905Z,236.38
2022-11-21T18:51:32.987Z,31.20
2022-11-21T18:54:07.211Z,22.33
2022-11-21T18:56:34.680Z,21.65
2022-11-21T18:59:03.342Z,22.80
2022-11-21T19:01:32.074Z,33.45
2022-11-21T19:03:59.435Z,111.18
2022-11-21T19:06:27.364Z,63.22
2022-11-21T19:08:57.277Z,35.60
2022-11-21T19:11:26.988Z,162.55
2022-11-21T19:13:54.882Z,12.27
2022-11-21T19:16:27.114Z,72.78
2022-11-21T19:21:41.888Z,9.02
2022-11-21T19:24:13.398Z,38.95
2022-11-21T19:26:41.402Z,8.02
2022-11-21T19:29:08.518Z,8.88
2022-11-21T19:31:39.388Z,11.05
2022-11-21T19:34:09.660Z,6.78
2022-11-21T19:36:36.622Z,9.13
2022-11-21T19:39:03.457Z,12.45
2022-11-21T19:41:30.835Z,11.43
2022-11-21T19:44:01.504Z,8.00
2022-11-21T19:46:33.754Z,7.63
2022-11-21T19:49:01.219Z,7.97
2022-11-21T19:51:37.204Z,7.03
2022-11-21T19:56:31.501Z,7.50
2022-11-21T19:58:58.795Z,7.38
2022-11-21T20:01:30.206Z,10.38
2022-11-21T20:04:00.108Z,7.60
2022-11-21T20:06:30.756Z,9.40
2022-11-21T20:09:00.045Z,8.32
2022-11-21T20:11:28.937Z,6.00
2022-11-21T20:13:56.266Z,5.53
2022-11-21T20:16:28.739Z,7.80
2022-11-21T20:18:58.041Z,11.32
2022-11-21T20:21:25.221Z,7.07
2022-11-21T20:23:53.021Z,10.50
2022-11-21T20:26:21.521Z,21.45
2022-11-21T20:28:48.971Z,19.80
2022-11-21T20:31:18.431Z,22.13
2022-11-21T20:33:50.464Z,16.42
2022-11-21T20:36:20.149Z,17.45
2022-11-21T20:38:57.311Z,12.55
2022-11-21T20:41:27.767Z,10.80
2022-11-21T20:44:44.627Z,11.60
2022-11-21T20:46:43.152Z,11.40
2022-11-21T20:49:10.121Z,7.28
2022-11-21T20:54:23.808Z,6.32
2022-11-21T20:56:50.534Z,6.10
2022-11-21T20:59:17.348Z,6.32
2022-11-21T21:01:44.159Z,6.72
2022-11-21T21:04:11.441Z,7.07
2022-11-21T21:06:39.524Z,7.05
2022-11-21T21:09:06.581Z,7.55
2022-11-21T21:14:21.343Z,8.40
2022-11-21T21:16:48.177Z,10.52
2022-11-21T21:19:14.938Z,12.40
2022-11-21T21:21:41.817Z,12.27
2022-11-21T21:24:10.954Z,15.02
2022-11-21T21:26:42.833Z,16.33
2022-11-21T21:29:18.377Z,18.80
2022-11-21T21:31:50.609Z,14.60
2022-11-21T21:34:19.765Z,17.38
2022-11-21T21:36:46.964Z,19.83
2022-11-21T21:39:14.190Z,17.63
2022-11-21T21:41:44.525Z,15.48
2022-11-21T21:44:11.858Z,12.48
2022-11-21T21:46:38.640Z,11.32
2022-11-21T21:49:05.513Z,16.40
2022-11-21T21:51:32.344Z,11.40
2022-11-21T21:54:00.216Z,10.95
2022-11-21T21:56:28.206Z,12.20
2022-11-21T21:58:57.070Z,10.73
2022-11-21T22:01:29.614Z,15.52
2022-11-21T22:03:58.735Z,7.55
2022-11-21T22:06:26.366Z,7.47
2022-11-21T22:08:54.385Z,9.02
2022-11-21T22:11:29.390Z,5.43
2022-11-21T22:14:01.276Z,3.92
2022-11-21T22:16:28.645Z,4.03
2022-11-21T22:18:56.086Z,4.05
2022-11-21T22:21:25.752Z,4.18
2022-11-21T22:26:39.485Z,5.68
2022-11-21T22:29:06.483Z,3.05
2022-11-21T22:31:34.029Z,3.53
2022-11-21T22:34:00.990Z,3.00
2022-11-21T22:36:27.790Z,2.92
2022-11-21T22:38:55.830Z,3.45
2022-11-21T22:41:25.136Z,2.85
2022-11-21T22:43:57.308Z,2.97
2022-11-21T22:46:27.061Z,2.90
2022-11-21T22:48:54.052Z,2.90
2022-11-21T22:51:26.239Z,3.30
2022-11-21T22:53:53.334Z,3.15
2022-11-21T22:56:22.383Z,3.55
2022-11-21T22:58:49.744Z,3.25
2022-11-21T23:01:24.581Z,17.15
2022-11-21T23:03:52.027Z,49.08
2022-11-21T23:06:21.342Z,6.85
2022-11-21T23:08:48.600Z,5.43
2022-11-21T23:11:17.976Z,5.50
2022-11-21T23:13:46.144Z,3.85
2022-11-21T23:16:13.721Z,4.10
2022-11-21T23:18:40.835Z,4.70
2022-11-21T23:21:08.918Z,3.88
2022-11-21T23:23:35.918Z,5.00
2022-11-21T23:26:03.147Z,13.27
2022-11-21T23:28:29.931Z,3.80
2022-11-21T23:30:56.731Z,3.78
2022-11-21T23:33:23.818Z,4.05
2022-11-21T23:35:50.810Z,5.10
2022-11-21T23:38:18.576Z,6.28
2022-11-21T23:40:46.550Z,4.35
2022-11-21T23:43:14.149Z,4.80
2022-11-21T23:45:41.021Z,4.28
2022-11-21T23:48:08.106Z,15.93
2022-11-21T23:50:34.957Z,4.30
2022-11-21T23:53:01.934Z,3.90
2022-11-21T23:55:29.176Z,4.60
2022-11-21T23:57:55.962Z,4.30
